Terminal Aerodrome Forecast
Issued by NWS Pittsburgh, PA

Current Version | Previous Version | Graphics & Text | Print | Product List | Glossary On
Versions: 1 2 3 4 5 6 7 8 9 10 11 12 13 14 15 16 17 18 19 20 21 22 23 24 25 26 27 28
000
FTUS41 KPBZ 250500
TAFPIT
TAF
KPIT 250525Z 2506/2612 10004KT P6SM OVC150
     FM251600 15010G18KT 4SM -SHRA OVC020
     FM251900 17010G18KT 4SM -SHRA OVC010
     FM252200 28012G22KT P6SM BKN020
     FM260400 28008KT P6SM SCT020=

USA.gov is the U.S. government's official web portal to all federal, state and local government web resources and services.